createdAt,value
2019-05-18T00:00:10.358Z,86.14
2019-05-18T00:02:40.016Z,86.04
2019-05-18T00:05:10.002Z,86.11
2019-05-18T00:07:39.676Z,86.45
2019-05-18T00:10:10.763Z,86.29
2019-05-18T00:12:40.427Z,86.38
2019-05-18T00:15:10.502Z,86.12
2019-05-18T00:17:40.157Z,86.34
2019-05-18T00:20:10.270Z,86.67
2019-05-18T00:22:39.929Z,86.79
2019-05-18T00:25:09.849Z,86.52
2019-05-18T00:27:39.509Z,86.99
2019-05-18T00:30:10.182Z,86.98
2019-05-18T00:32:39.942Z,87.04
2019-05-18T00:35:09.726Z,87.63
2019-05-18T00:37:39.394Z,87.82
2019-05-18T00:40:10.159Z,87.77
2019-05-18T00:42:39.767Z,86.90
2019-05-18T00:45:09.834Z,87.04
2019-05-18T00:47:41.901Z,87.27
2019-05-18T00:50:11.375Z,87.49
2019-05-18T00:52:41.023Z,87.56
2019-05-18T00:55:10.899Z,87.18
2019-05-18T00:57:40.588Z,87.28
2019-05-18T01:00:10.597Z,87.59
2019-05-18T01:02:40.203Z,87.52
2019-05-18T01:05:10.093Z,87.78
2019-05-18T01:07:39.745Z,87.89
2019-05-18T01:10:10.039Z,88.10
2019-05-18T01:12:39.707Z,88.14
2019-05-18T01:15:10.173Z,87.73
2019-05-18T01:17:39.815Z,87.60
2019-05-18T01:20:10.023Z,87.61
2019-05-18T01:22:39.648Z,87.68
2019-05-18T01:25:09.767Z,87.74
2019-05-18T01:27:39.403Z,87.68
2019-05-18T01:30:12.018Z,87.57
2019-05-18T01:32:41.655Z,87.88
2019-05-18T01:35:11.657Z,87.67
2019-05-18T01:37:41.314Z,87.68
2019-05-18T01:40:12.696Z,87.88
2019-05-18T01:42:42.336Z,87.93
2019-05-18T01:45:16.814Z,88.61
2019-05-18T01:47:43.790Z,88.71
2019-05-18T01:50:13.684Z,88.49
2019-05-18T01:52:43.329Z,88.56
2019-05-18T01:55:13.226Z,88.19
2019-05-18T01:57:42.869Z,88.11
2019-05-18T02:00:12.971Z,88.21
2019-05-18T02:02:42.607Z,88.12
2019-05-18T02:05:12.635Z,88.04
2019-05-18T02:07:42.269Z,88.29
2019-05-18T02:10:12.386Z,88.26
2019-05-18T02:12:42.024Z,88.23
2019-05-18T02:15:11.948Z,88.18
2019-05-18T02:17:41.592Z,88.34
2019-05-18T02:20:12.385Z,88.15
2019-05-18T02:22:42.022Z,88.47
2019-05-18T02:25:11.923Z,88.61
2019-05-18T02:27:41.570Z,88.46
2019-05-18T02:30:16.961Z,88.16
2019-05-18T02:32:43.787Z,88.08
2019-05-18T02:35:13.444Z,88.28
2019-05-18T02:37:43.081Z,88.16
2019-05-18T02:40:12.892Z,88.21
2019-05-18T02:42:43.505Z,88.55
2019-05-18T02:45:13.499Z,88.11
2019-05-18T02:47:43.139Z,88.42
2019-05-18T02:50:13.138Z,88.19
2019-05-18T02:52:42.773Z,88.03
2019-05-18T02:55:13.672Z,87.90
2019-05-18T02:57:43.303Z,88.07
2019-05-18T03:00:13.036Z,88.27
2019-05-18T03:02:42.708Z,88.39
2019-05-18T03:05:12.581Z,88.54
2019-05-18T03:07:42.220Z,88.62
2019-05-18T03:10:12.215Z,89.01
2019-05-18T03:12:41.854Z,89.10
2019-05-18T03:15:11.855Z,89.21
2019-05-18T03:17:41.483Z,89.25
2019-05-18T03:20:11.490Z,89.18
2019-05-18T03:22:41.227Z,89.53
2019-05-18T03:25:11.032Z,89.77
2019-05-18T03:27:40.665Z,90.41
2019-05-18T03:30:11.286Z,90.39
2019-05-18T03:32:41.023Z,90.35
2019-05-18T03:35:10.829Z,90.26
2019-05-18T03:37:40.555Z,90.05
2019-05-18T03:40:10.781Z,89.87
2019-05-18T03:42:40.413Z,90.17
2019-05-18T03:45:10.621Z,90.29
2019-05-18T03:47:40.331Z,90.20
2019-05-18T03:50:10.128Z,90.22
2019-05-18T03:52:39.754Z,90.27
2019-05-18T03:55:10.007Z,90.51
2019-05-18T03:57:39.648Z,90.73
2019-05-18T04:00:10.230Z,90.68
2019-05-18T04:02:39.860Z,90.66
2019-05-18T04:05:09.685Z,90.63
2019-05-18T04:07:39.357Z,90.93
2019-05-18T04:10:10.820Z,90.85
2019-05-18T04:12:40.659Z,90.96
2019-05-18T04:15:10.609Z,91.02
2019-05-18T04:17:40.337Z,91.04
2019-05-18T04:20:10.252Z,90.82
2019-05-18T04:22:39.964Z,90.71
2019-05-18T04:25:09.721Z,90.60
2019-05-18T04:27:39.479Z,90.57
2019-05-18T04:30:10.132Z,90.53
2019-05-18T04:32:40.002Z,90.45
2019-05-18T04:35:09.811Z,90.41
2019-05-18T04:37:39.614Z,90.56
2019-05-18T04:40:09.587Z,90.40
2019-05-18T04:42:39.695Z,90.37
2019-05-18T04:45:09.779Z,90.57
2019-05-18T04:47:39.649Z,90.43
2019-05-18T04:50:10.327Z,90.21
2019-05-18T04:52:39.981Z,90.24
2019-05-18T04:55:11.084Z,90.17
2019-05-18T04:57:40.858Z,90.12
2019-05-18T05:00:10.806Z,90.22
2019-05-18T05:02:40.766Z,90.40
2019-05-18T05:05:10.567Z,90.05
2019-05-18T05:07:40.339Z,89.87
2019-05-18T05:10:10.249Z,89.93
2019-05-18T05:12:40.014Z,90.05
2019-05-18T05:15:10.086Z,89.77
2019-05-18T05:17:40.039Z,89.60
2019-05-18T05:20:19.239Z,89.76
2019-05-18T05:22:41.275Z,89.79
2019-05-18T05:25:10.981Z,89.55
2019-05-18T05:27:40.642Z,89.41
2019-05-18T05:30:10.621Z,89.30
2019-05-18T05:32:40.285Z,89.15
2019-05-18T05:35:10.149Z,89.18
2019-05-18T05:37:39.807Z,89.27
2019-05-18T05:40:09.711Z,89.25
2019-05-18T05:42:39.370Z,89.43
2019-05-18T05:45:09.903Z,88.97
2019-05-18T05:47:39.571Z,88.27
2019-05-18T05:50:09.998Z,88.11
2019-05-18T05:52:39.687Z,88.05
2019-05-18T05:55:10.031Z,88.16
2019-05-18T05:57:39.694Z,88.05
2019-05-18T06:00:10.591Z,87.47
2019-05-18T06:02:40.263Z,87.04
2019-05-18T06:05:10.131Z,86.22
2019-05-18T06:07:39.786Z,86.65
2019-05-18T06:10:10.094Z,85.80
2019-05-18T06:12:41.194Z,85.39
2019-05-18T06:15:11.972Z,85.99
2019-05-18T06:17:41.693Z,86.27
2019-05-18T06:20:11.752Z,84.87
2019-05-18T06:22:41.548Z,84.57
2019-05-18T06:25:11.345Z,84.44
2019-05-18T06:27:41.009Z,84.86
2019-05-18T06:30:10.987Z,83.49
2019-05-18T06:32:40.659Z,83.51
2019-05-18T06:35:10.307Z,83.50
2019-05-18T06:37:40.179Z,82.63
2019-05-18T06:40:09.886Z,81.76
2019-05-18T06:42:39.632Z,80.96
2019-05-18T06:45:09.807Z,80.28
2019-05-18T06:47:39.685Z,79.29
2019-05-18T06:50:12.448Z,79.07
2019-05-18T06:52:42.021Z,79.26
2019-05-18T06:55:11.653Z,77.21
2019-05-18T06:57:41.807Z,76.84
2019-05-18T07:00:13.115Z,76.82
2019-05-18T07:02:42.880Z,76.79
2019-05-18T07:05:12.516Z,77.20
2019-05-18T07:07:42.345Z,76.27
2019-05-18T07:10:12.148Z,76.19
2019-05-18T07:12:41.823Z,77.11
2019-05-18T07:15:11.895Z,76.04
2019-05-18T07:17:41.551Z,77.13
2019-05-18T07:20:11.422Z,75.99
2019-05-18T07:22:41.347Z,77.39
2019-05-18T07:25:11.122Z,77.04
2019-05-18T07:27:40.782Z,76.48
2019-05-18T07:30:10.858Z,76.80
2019-05-18T07:32:40.523Z,77.24
2019-05-18T07:35:10.500Z,75.95
2019-05-18T07:37:40.170Z,76.15
2019-05-18T07:40:10.165Z,73.64
2019-05-18T07:42:39.930Z,74.04
2019-05-18T07:45:10.138Z,74.94
2019-05-18T07:47:39.894Z,73.85
2019-05-18T07:50:09.897Z,72.82
2019-05-18T07:52:39.743Z,73.42
2019-05-18T07:55:10.355Z,72.43
2019-05-18T07:57:39.984Z,71.22
2019-05-18T08:00:10.286Z,71.48
2019-05-18T08:02:39.926Z,70.26
2019-05-18T08:05:09.814Z,70.60
2019-05-18T08:07:39.579Z,69.10
2019-05-18T08:10:11.172Z,68.63
2019-05-18T08:12:40.960Z,66.34
2019-05-18T08:15:11.482Z,65.11
2019-05-18T08:17:41.251Z,65.52
2019-05-18T08:20:11.842Z,63.14
2019-05-18T08:22:41.480Z,62.51
2019-05-18T08:25:11.583Z,63.29
2019-05-18T08:27:41.226Z,63.38
2019-05-18T08:30:11.531Z,62.27
2019-05-18T08:32:41.142Z,62.54
2019-05-18T08:35:10.864Z,58.11
2019-05-18T08:37:40.513Z,59.75
2019-05-18T08:40:11.023Z,59.53
2019-05-18T08:42:40.689Z,58.74
2019-05-18T08:45:11.012Z,58.69
2019-05-18T08:47:40.636Z,58.99
2019-05-18T08:50:10.634Z,56.87
2019-05-18T08:52:40.273Z,58.13
2019-05-18T08:55:10.266Z,55.23
2019-05-18T08:57:40.099Z,54.02
2019-05-18T09:00:09.988Z,54.56
2019-05-18T09:02:39.659Z,56.13
2019-05-18T09:05:09.655Z,56.26
2019-05-18T09:07:39.677Z,52.57
2019-05-18T09:10:09.686Z,53.56
2019-05-18T09:12:39.663Z,53.13
2019-05-18T09:15:10.856Z,52.76
2019-05-18T09:17:40.489Z,53.21
2019-05-18T09:20:10.578Z,52.28
2019-05-18T09:22:40.204Z,52.66
2019-05-18T09:25:10.495Z,52.16
2019-05-18T09:27:40.146Z,51.37
2019-05-18T09:30:11.188Z,51.31
2019-05-18T09:32:40.879Z,51.96
2019-05-18T09:35:10.746Z,52.18
2019-05-18T09:37:40.387Z,51.88
2019-05-18T09:40:10.409Z,53.52
2019-05-18T09:42:40.040Z,52.40
2019-05-18T09:45:10.639Z,51.85
2019-05-18T09:47:40.568Z,52.07
2019-05-18T09:50:10.357Z,52.56
2019-05-18T09:52:45.213Z,51.99
2019-05-18T09:55:11.495Z,49.45
2019-05-18T09:57:41.174Z,50.98
2019-05-18T10:00:12.442Z,50.34
2019-05-18T10:02:42.162Z,49.93
2019-05-18T10:05:12.044Z,49.08
2019-05-18T10:07:41.675Z,48.80
2019-05-18T10:10:11.970Z,47.48
2019-05-18T10:12:41.710Z,48.62
2019-05-18T10:15:11.425Z,48.82
2019-05-18T10:17:41.052Z,49.36
2019-05-18T10:20:10.860Z,51.11
2019-05-18T10:22:53.514Z,50.77
2019-05-18T10:25:12.498Z,49.90
2019-05-18T10:27:42.116Z,48.41
2019-05-18T10:30:12.312Z,47.11
2019-05-18T10:32:41.946Z,44.40
2019-05-18T10:35:13.113Z,45.14
2019-05-18T10:37:42.741Z,44.75
2019-05-18T10:40:12.838Z,44.23
2019-05-18T10:42:42.468Z,43.61
2019-05-18T10:45:12.872Z,45.14
2019-05-18T10:47:42.495Z,43.86
2019-05-18T10:50:12.394Z,43.86
2019-05-18T10:52:42.059Z,45.32
2019-05-18T10:55:12.429Z,47.66
2019-05-18T10:57:42.082Z,47.44
2019-05-18T11:00:12.913Z,46.21
2019-05-18T11:02:42.600Z,47.06
2019-05-18T11:05:12.350Z,45.86
2019-05-18T11:07:42.112Z,45.82
2019-05-18T11:10:12.090Z,43.16
2019-05-18T11:12:41.743Z,42.48
2019-05-18T11:15:12.408Z,44.44
2019-05-18T11:17:42.066Z,43.92
2019-05-18T11:20:13.599Z,45.15
2019-05-18T11:22:43.260Z,44.30
2019-05-18T11:25:13.225Z,44.98
2019-05-18T11:27:42.884Z,44.71
2019-05-18T11:30:14.293Z,43.67
2019-05-18T11:32:43.952Z,41.16
2019-05-18T11:35:13.942Z,41.96
2019-05-18T11:37:43.574Z,42.86
2019-05-18T11:40:13.467Z,43.50
2019-05-18T11:42:43.139Z,41.47
2019-05-18T11:45:13.996Z,40.82
2019-05-18T11:47:43.648Z,40.90
2019-05-18T11:50:13.622Z,41.18
2019-05-18T11:52:43.443Z,42.89
2019-05-18T11:55:13.584Z,43.90
2019-05-18T11:57:43.249Z,42.86
2019-05-18T12:00:15.710Z,41.31
2019-05-18T12:02:45.491Z,42.06
2019-05-18T12:05:15.538Z,37.09
2019-05-18T12:07:45.191Z,36.79
2019-05-18T12:10:18.215Z,38.99
2019-05-18T12:12:46.804Z,38.44
2019-05-18T12:15:16.970Z,38.11
2019-05-18T12:17:46.622Z,36.99
2019-05-18T12:20:16.695Z,34.51
2019-05-18T12:22:46.356Z,35.94
2019-05-18T12:25:16.759Z,35.20
2019-05-18T12:27:46.438Z,37.81
2019-05-18T12:30:16.661Z,37.39
2019-05-18T12:32:46.328Z,37.46
2019-05-18T12:35:16.393Z,36.75
2019-05-18T12:37:46.116Z,38.03
2019-05-18T12:40:18.788Z,36.92
2019-05-18T12:42:48.449Z,38.67
2019-05-18T12:45:18.916Z,37.73
2019-05-18T12:47:48.572Z,39.02
2019-05-18T12:50:19.535Z,36.82
2019-05-18T12:52:49.197Z,37.26
2019-05-18T12:55:19.264Z,37.53
2019-05-18T12:57:48.918Z,37.46
2019-05-18T13:00:19.069Z,37.33
2019-05-18T13:02:49.393Z,37.01
2019-05-18T13:05:19.100Z,38.12
2019-05-18T13:07:48.763Z,36.86
2019-05-18T13:10:19.730Z,37.32
2019-05-18T13:12:49.384Z,37.32
2019-05-18T13:15:19.443Z,37.49
2019-05-18T13:17:49.102Z,37.96
2019-05-18T13:20:19.185Z,36.87
2019-05-18T13:22:48.843Z,36.87
2019-05-18T13:25:18.692Z,36.96
2019-05-18T13:27:48.367Z,35.62
2019-05-18T13:30:19.896Z,35.59
2019-05-18T13:32:49.720Z,36.07
2019-05-18T13:35:19.673Z,35.45
2019-05-18T13:37:49.324Z,36.12
2019-05-18T13:40:19.490Z,35.62
2019-05-18T13:42:49.148Z,35.97
2019-05-18T13:45:19.240Z,36.55
2019-05-18T13:47:48.886Z,36.76
2019-05-18T13:50:18.946Z,34.45
2019-05-18T13:52:48.602Z,34.73
2019-05-18T13:55:18.360Z,35.64
2019-05-18T13:57:48.020Z,35.90
2019-05-18T14:00:18.177Z,34.02
2019-05-18T14:02:47.995Z,33.95
2019-05-18T14:05:17.711Z,34.91
2019-05-18T14:07:47.863Z,36.35
2019-05-18T14:10:18.888Z,35.39
2019-05-18T14:12:48.923Z,35.52
2019-05-18T14:15:22.337Z,36.59
2019-05-18T14:17:49.913Z,36.71
2019-05-18T14:20:19.702Z,36.71
2019-05-18T14:22:49.331Z,37.92
2019-05-18T14:25:20.205Z,37.92
2019-05-18T14:27:49.986Z,37.16
2019-05-18T14:30:20.178Z,37.16
2019-05-18T14:32:49.806Z,37.42
2019-05-18T14:35:19.458Z,36.93
2019-05-18T14:37:49.087Z,36.39
2019-05-18T14:40:19.105Z,35.72
2019-05-18T14:42:48.708Z,36.30
2019-05-18T14:45:18.901Z,36.04
2019-05-18T14:47:48.526Z,36.56
2019-05-18T14:50:18.318Z,37.56
2019-05-18T14:52:47.950Z,36.55
2019-05-18T14:55:17.761Z,36.55
2019-05-18T14:57:47.395Z,36.93
2019-05-18T15:00:17.513Z,36.78
2019-05-18T15:02:47.140Z,36.78
2019-05-18T15:05:16.955Z,36.30
2019-05-18T15:07:46.575Z,36.30
2019-05-18T15:10:16.668Z,37.54
2019-05-18T15:12:46.298Z,37.15
2019-05-18T15:15:16.291Z,37.15
2019-05-18T15:17:45.922Z,37.90
2019-05-18T15:20:15.812Z,37.90
2019-05-18T15:22:45.451Z,36.88
2019-05-18T15:25:15.228Z,37.24
2019-05-18T15:27:44.848Z,37.52
2019-05-18T15:30:15.641Z,37.91
2019-05-18T15:32:45.270Z,36.30
2019-05-18T15:35:16.497Z,36.88
2019-05-18T15:37:46.140Z,35.96
2019-05-18T15:40:15.848Z,36.05
2019-05-18T15:42:45.480Z,36.19
2019-05-18T15:45:16.370Z,35.93
2019-05-18T15:47:45.991Z,35.56
2019-05-18T15:50:16.295Z,35.22
2019-05-18T15:52:45.939Z,35.79
2019-05-18T15:55:15.933Z,36.02
2019-05-18T15:57:45.559Z,35.28
2019-05-18T16:00:16.022Z,34.49
2019-05-18T16:02:45.656Z,34.91
2019-05-18T16:05:15.564Z,35.41
2019-05-18T16:07:45.272Z,33.96
2019-05-18T16:10:15.167Z,33.96
2019-05-18T16:12:44.799Z,34.12
2019-05-18T16:15:14.894Z,33.69
2019-05-18T16:17:44.515Z,33.74
2019-05-18T16:20:15.200Z,33.85
2019-05-18T16:22:44.872Z,34.21
2019-05-18T16:25:15.926Z,34.14
2019-05-18T16:27:45.544Z,33.94
2019-05-18T16:30:16.541Z,35.02
2019-05-18T16:32:46.187Z,35.02
2019-05-18T16:35:15.976Z,35.14
2019-05-18T16:37:45.603Z,36.07
2019-05-18T16:40:15.805Z,36.34
2019-05-18T16:42:46.674Z,36.34
2019-05-18T16:45:16.806Z,36.81
2019-05-18T16:47:46.440Z,36.13
2019-05-18T16:50:16.539Z,36.98
2019-05-18T16:52:46.168Z,35.97
2019-05-18T16:55:15.891Z,34.91
2019-05-18T16:57:45.516Z,34.91
2019-05-18T17:00:16.650Z,35.03
2019-05-18T17:02:46.349Z,35.30
2019-05-18T17:05:16.220Z,35.74
2019-05-18T17:07:46.648Z,36.40
2019-05-18T17:10:16.852Z,37.04
2019-05-18T17:12:46.507Z,36.28
2019-05-18T17:15:16.602Z,36.04
2019-05-18T17:17:46.244Z,37.25
2019-05-18T17:20:16.114Z,36.70
2019-05-18T17:22:45.930Z,36.41
2019-05-18T17:25:15.623Z,36.09
2019-05-18T17:27:45.279Z,36.25
2019-05-18T17:30:15.636Z,37.83
2019-05-18T17:32:45.293Z,38.00
2019-05-18T17:35:15.560Z,38.64
2019-05-18T17:37:45.223Z,38.56
2019-05-18T17:40:16.828Z,39.56
2019-05-18T17:42:46.480Z,40.18
2019-05-18T17:45:16.253Z,39.62
2019-05-18T17:47:45.906Z,40.34
2019-05-18T17:50:15.765Z,40.54
2019-05-18T17:52:45.427Z,41.27
2019-05-18T17:55:16.466Z,41.56
2019-05-18T17:57:46.325Z,41.67
2019-05-18T18:00:17.411Z,42.00
2019-05-18T18:02:48.327Z,42.34
2019-05-18T18:05:18.058Z,42.72
2019-05-18T18:07:47.719Z,42.93
2019-05-18T18:10:17.793Z,43.29
2019-05-18T18:12:47.491Z,44.20
2019-05-18T18:15:17.155Z,44.19
2019-05-18T18:17:46.921Z,44.33
2019-05-18T18:20:17.080Z,44.45
2019-05-18T18:22:46.743Z,44.50
2019-05-18T18:25:16.551Z,45.12
2019-05-18T18:27:46.202Z,45.24
2019-05-18T18:30:16.101Z,45.77
2019-05-18T18:32:45.754Z,45.94
2019-05-18T18:35:15.411Z,46.12
2019-05-18T18:37:45.068Z,48.16
2019-05-18T18:40:15.279Z,49.27
2019-05-18T18:42:45.017Z,48.79
2019-05-18T18:45:15.730Z,49.71
2019-05-18T18:47:45.552Z,51.40
2019-05-18T18:50:15.344Z,52.75
2019-05-18T18:52:44.985Z,53.73
2019-05-18T18:55:14.615Z,54.42
2019-05-18T18:57:44.282Z,53.32
2019-05-18T19:00:15.596Z,54.64
2019-05-18T19:02:45.763Z,55.80
2019-05-18T19:05:15.533Z,56.65
2019-05-18T19:07:45.216Z,57.06
2019-05-18T19:10:15.320Z,58.10
2019-05-18T19:12:44.983Z,58.64
2019-05-18T19:15:14.768Z,59.19
2019-05-18T19:17:44.439Z,60.10
2019-05-18T19:20:14.427Z,59.83
2019-05-18T19:22:44.097Z,59.96
2019-05-18T19:25:14.077Z,61.55
2019-05-18T19:27:54.728Z,62.68
2019-05-18T19:30:15.410Z,61.97
2019-05-18T19:32:45.081Z,62.21
2019-05-18T19:35:14.896Z,62.39
2019-05-18T19:37:44.558Z,64.17
2019-05-18T19:40:14.437Z,64.07
2019-05-18T19:42:44.127Z,65.78
2019-05-18T19:45:14.103Z,65.27
2019-05-18T19:47:43.776Z,66.76
2019-05-18T19:50:13.565Z,66.08
2019-05-18T19:52:43.229Z,66.15
2019-05-18T19:55:13.397Z,65.49
2019-05-18T19:57:43.057Z,65.78
2019-05-18T20:00:13.305Z,66.66
2019-05-18T20:02:42.904Z,68.02
2019-05-18T20:05:12.828Z,68.17
2019-05-18T20:07:42.713Z,68.51
2019-05-18T20:10:12.951Z,68.65
2019-05-18T20:12:42.624Z,68.33
2019-05-18T20:15:12.557Z,66.70
2019-05-18T20:17:42.210Z,68.73
2019-05-18T20:20:12.079Z,69.11
2019-05-18T20:22:42.062Z,68.79
2019-05-18T20:25:11.822Z,68.74
2019-05-18T20:27:41.682Z,68.92
2019-05-18T20:30:12.286Z,70.40
2019-05-18T20:32:42.091Z,70.25
2019-05-18T20:35:13.340Z,70.85
2019-05-18T20:37:42.971Z,70.11
2019-05-18T20:40:13.480Z,72.41
2019-05-18T20:42:43.124Z,71.40
2019-05-18T20:45:13.125Z,71.55
2019-05-18T20:47:42.960Z,70.33
2019-05-18T20:50:14.437Z,72.01
2019-05-18T20:52:44.251Z,72.21
2019-05-18T20:55:15.890Z,72.56
2019-05-18T20:57:45.696Z,72.79
2019-05-18T21:00:16.511Z,72.45
2019-05-18T21:02:46.142Z,72.40
2019-05-18T21:05:15.907Z,72.48
2019-05-18T21:07:45.622Z,72.10
2019-05-18T21:10:18.452Z,73.14
2019-05-18T21:12:49.811Z,71.53
2019-05-18T21:15:23.634Z,71.23
2019-05-18T21:17:53.465Z,70.69
2019-05-18T21:20:23.384Z,71.08
2019-05-18T21:22:54.767Z,72.21
2019-05-18T21:25:28.279Z,71.49
2019-05-18T21:27:59.351Z,72.53
2019-05-18T21:30:29.049Z,73.39
2019-05-18T21:32:58.682Z,73.53
2019-05-18T21:35:28.571Z,72.50
2019-05-18T21:37:58.214Z,72.07
2019-05-18T21:40:28.059Z,71.63
2019-05-18T21:42:57.778Z,71.55
2019-05-18T21:45:31.752Z,71.11
2019-05-18T21:48:04.154Z,71.27
2019-05-18T21:50:33.950Z,71.06
2019-05-18T21:53:03.698Z,71.14
2019-05-18T21:55:34.371Z,70.70
2019-05-18T21:58:04.129Z,70.69
2019-05-18T22:00:34.162Z,70.78
2019-05-18T22:03:05.945Z,71.89
2019-05-18T22:05:35.909Z,71.94
2019-05-18T22:08:06.361Z,72.85
2019-05-18T22:10:38.310Z,73.48
2019-05-18T22:13:08.071Z,74.78
2019-05-18T22:15:38.495Z,74.30
2019-05-18T22:18:22.219Z,74.09
2019-05-18T22:20:43.580Z,73.66
2019-05-18T22:23:11.531Z,74.20
2019-05-18T22:25:42.409Z,73.54
2019-05-18T22:28:12.266Z,73.74
2019-05-18T22:30:42.063Z,73.88
2019-05-18T22:33:11.995Z,74.60
2019-05-18T22:35:41.657Z,73.19
2019-05-18T22:38:11.586Z,73.24
2019-05-18T22:40:41.259Z,73.65
2019-05-18T22:43:10.884Z,73.52
2019-05-18T22:45:40.730Z,73.06
2019-05-18T22:48:10.498Z,73.13
2019-05-18T22:50:40.372Z,72.92
2019-05-18T22:53:10.005Z,72.77
2019-05-18T22:55:39.687Z,72.94
2019-05-18T22:58:09.420Z,72.51
2019-05-18T23:00:39.083Z,73.05
2019-05-18T23:03:08.965Z,72.97
2019-05-18T23:05:38.729Z,73.71
2019-05-18T23:08:08.893Z,73.28
2019-05-18T23:10:38.654Z,73.53
2019-05-18T23:13:09.149Z,73.92
2019-05-18T23:15:39.009Z,74.27
2019-05-18T23:18:08.951Z,74.02
2019-05-18T23:20:38.722Z,74.01
2019-05-18T23:23:08.890Z,73.74
2019-05-18T23:25:38.682Z,75.04
2019-05-18T23:28:08.318Z,75.91
2019-05-18T23:30:38.178Z,75.80
2019-05-18T23:33:07.909Z,76.36
2019-05-18T23:35:38.120Z,77.23
2019-05-18T23:38:07.778Z,77.39
2019-05-18T23:40:37.442Z,77.07
2019-05-18T23:43:07.434Z,76.21
2019-05-18T23:45:37.093Z,76.62
2019-05-18T23:48:06.738Z,76.71
2019-05-18T23:50:36.649Z,78.06
2019-05-18T23:53:06.281Z,77.33
2019-05-18T23:55:35.954Z,78.25
2019-05-18T23:58:06.188Z,78.24
